Pikes Falls, Vermont
Current Conditions -  °F | °C
As of 12:03 PM on Monday 22 Dec 2014 (Local Time) from KVSF Reporting Station
Overcast Overcast  
Wind Chill: 32°   Ceiling: 1900
Heat Index: 32°   Visibility: 10mi
Dew Point: 28°   Wind: 0mph
Humidity: 85%   Direction: NA
Pressure: 30.34"   Gusts: NA
Location:  43.1008°N, 72.8076°W
Report Text: KVSF 221703Z AUTO 00000KT 10SM BKN019 OVC040 00/M02 A3034 RMK AO2 T00001022 TSNO
Loading
Personal Weather Stations






























Interactive Weather Map New forecast layout! Learn more

10-Day Weather Forecast

Advertisements
Track Severe Weather on mobile